createdAt,value
2018-07-01T00:02:05.557Z,20.80
2018-07-01T00:04:35.539Z,20.70
2018-07-01T00:07:05.380Z,20.60
2018-07-01T00:09:35.343Z,20.60
2018-07-01T00:12:04.446Z,20.50
2018-07-01T00:14:33.818Z,20.40
2018-07-01T00:17:03.021Z,20.30
2018-07-01T00:19:32.150Z,20.30
2018-07-01T00:22:02.116Z,20.30
2018-07-01T00:24:31.152Z,20.30
2018-07-01T00:27:00.319Z,20.30
2018-07-01T00:29:29.692Z,20.20
2018-07-01T00:31:58.919Z,20.20
2018-07-01T00:34:28.036Z,20.20
2018-07-01T00:36:57.311Z,20.20
2018-07-01T00:39:26.440Z,20.10
2018-07-01T00:41:55.627Z,20.10
2018-07-01T00:44:24.788Z,20.10
2018-07-01T00:46:53.824Z,20.00
2018-07-01T00:49:22.976Z,20.00
2018-07-01T00:51:52.832Z,20.00
2018-07-01T00:54:22.010Z,19.90
2018-07-01T00:56:51.073Z,19.90
2018-07-01T00:59:20.179Z,19.80
2018-07-01T01:01:49.939Z,19.80
2018-07-01T01:04:19.042Z,19.80
2018-07-01T01:06:48.150Z,19.70
2018-07-01T01:09:17.569Z,19.70
2018-07-01T01:11:46.682Z,19.70
2018-07-01T01:14:15.830Z,19.70
2018-07-01T01:16:44.990Z,19.60
2018-07-01T01:19:14.166Z,19.60
2018-07-01T01:21:43.449Z,19.60
2018-07-01T01:26:41.290Z,19.60
2018-07-01T01:29:10.505Z,19.50
2018-07-01T01:31:39.802Z,19.40
2018-07-01T01:34:09.618Z,19.40
2018-07-01T01:36:40.111Z,19.40
2018-07-01T01:39:12.674Z,19.40
2018-07-01T01:41:48.701Z,19.40
2018-07-01T01:44:22.892Z,19.30
2018-07-01T01:46:56.755Z,19.30
2018-07-01T01:49:30.395Z,19.20
2018-07-01T01:52:05.009Z,19.20
2018-07-01T01:54:50.034Z,19.10
2018-07-01T01:57:25.814Z,19.10
2018-07-01T02:00:05.943Z,19.00
2018-07-01T02:02:39.273Z,19.00
2018-07-01T02:05:14.753Z,19.00
2018-07-01T02:07:50.746Z,18.90
2018-07-01T02:10:19.931Z,18.90
2018-07-01T02:12:49.223Z,18.80
2018-07-01T02:15:21.643Z,18.80
2018-07-01T02:17:52.609Z,18.80
2018-07-01T02:20:24.169Z,18.70
2018-07-01T02:23:27.479Z,18.70
2018-07-01T02:25:56.711Z,18.60
2018-07-01T02:28:25.939Z,18.60
2018-07-01T02:30:55.038Z,18.50
2018-07-01T02:33:24.109Z,18.50
2018-07-01T02:35:53.850Z,18.40
2018-07-01T02:38:22.896Z,18.30
2018-07-01T02:40:52.041Z,18.30
2018-07-01T02:43:21.263Z,18.20
2018-07-01T02:45:50.465Z,18.20
2018-07-01T02:48:19.735Z,18.20
2018-07-01T02:50:48.926Z,18.10
2018-07-01T02:53:18.154Z,18.10
2018-07-01T02:55:47.850Z,18.10
2018-07-01T02:58:17.912Z,18.00
2018-07-01T03:00:47.071Z,18.10
2018-07-01T03:03:16.550Z,18.00
2018-07-01T03:05:45.611Z,18.00
2018-07-01T03:08:15.228Z,17.90
2018-07-01T03:10:44.387Z,17.90
2018-07-01T03:13:13.588Z,17.90
2018-07-01T03:15:42.732Z,17.90
2018-07-01T03:18:11.829Z,17.90
2018-07-01T03:20:40.980Z,17.90
2018-07-01T03:23:09.984Z,17.80
2018-07-01T03:25:39.052Z,17.80
2018-07-01T03:28:08.121Z,17.70
2018-07-01T03:30:37.255Z,17.80
2018-07-01T03:33:06.845Z,17.80
2018-07-01T03:35:35.975Z,17.80
2018-07-01T03:38:05.557Z,17.80
2018-07-01T03:40:34.715Z,17.70
2018-07-01T03:43:03.974Z,17.70
2018-07-01T03:45:33.023Z,17.70
2018-07-01T03:48:02.086Z,17.70
2018-07-01T03:50:31.479Z,17.70
2018-07-01T03:53:01.320Z,17.70
2018-07-01T03:55:30.354Z,17.70
2018-07-01T03:57:59.465Z,17.60
2018-07-01T04:00:28.616Z,17.70
2018-07-01T04:02:57.638Z,17.70
2018-07-01T04:05:26.751Z,17.70
2018-07-01T04:07:55.852Z,17.70
2018-07-01T04:10:25.024Z,17.70
2018-07-01T04:12:54.221Z,17.70
2018-07-01T04:15:23.326Z,17.80
2018-07-01T04:17:52.691Z,17.80
2018-07-01T04:20:22.000Z,17.80
2018-07-01T04:22:51.019Z,17.70
2018-07-01T04:25:20.413Z,17.80
2018-07-01T04:27:49.552Z,17.90
2018-07-01T04:32:47.499Z,17.90
2018-07-01T04:35:16.495Z,17.90
2018-07-01T04:37:45.588Z,17.90
2018-07-01T04:40:14.604Z,17.90
2018-07-01T04:42:44.076Z,18.00
2018-07-01T04:45:13.237Z,18.00
2018-07-01T04:47:42.437Z,18.00
2018-07-01T04:50:11.648Z,18.00
2018-07-01T04:52:40.815Z,18.00
2018-07-01T04:55:09.868Z,18.00
2018-07-01T04:57:40.001Z,18.10
2018-07-01T05:00:09.421Z,18.10
2018-07-01T05:02:38.786Z,18.20
2018-07-01T05:05:08.427Z,18.20
2018-07-01T05:07:37.642Z,18.30
2018-07-01T05:10:06.911Z,18.40
2018-07-01T05:12:36.194Z,18.40
2018-07-01T05:15:05.559Z,18.50
2018-07-01T05:17:34.748Z,18.60
2018-07-01T05:20:03.872Z,18.80
2018-07-01T05:22:33.097Z,18.90
2018-07-01T05:25:02.148Z,19.00
2018-07-01T05:27:31.427Z,19.20
2018-07-01T05:30:00.457Z,19.30
2018-07-01T05:32:29.568Z,19.50
2018-07-01T05:34:58.652Z,19.80
2018-07-01T05:37:27.911Z,19.90
2018-07-01T05:39:57.141Z,20.10
2018-07-01T05:42:26.257Z,20.30
2018-07-01T05:44:55.440Z,20.40
2018-07-01T05:47:24.453Z,20.40
2018-07-01T05:49:53.653Z,20.30
2018-07-01T05:52:23.281Z,20.30
2018-07-01T05:54:52.424Z,20.20
2018-07-01T05:57:21.735Z,20.20
2018-07-01T05:59:50.848Z,20.20
2018-07-01T06:02:20.620Z,20.10
2018-07-01T06:04:49.644Z,20.10
2018-07-01T06:07:18.723Z,20.20
2018-07-01T06:09:47.782Z,20.20
2018-07-01T06:12:17.095Z,20.20
2018-07-01T06:14:46.281Z,20.30
2018-07-01T06:17:16.461Z,20.40
2018-07-01T06:19:46.312Z,20.40
2018-07-01T06:22:15.410Z,20.40
2018-07-01T06:24:44.470Z,20.40
2018-07-01T06:27:13.767Z,20.50
2018-07-01T06:29:42.992Z,20.50
2018-07-01T06:32:12.063Z,20.60
2018-07-01T06:34:41.312Z,20.70
2018-07-01T06:37:10.723Z,20.80
2018-07-01T06:39:39.877Z,20.90
2018-07-01T06:42:09.142Z,20.90
2018-07-01T06:44:39.861Z,20.90
2018-07-01T06:47:09.217Z,20.90
2018-07-01T06:49:38.394Z,21.00
2018-07-01T06:52:07.974Z,21.10
2018-07-01T06:54:37.908Z,21.20
2018-07-01T06:57:07.048Z,21.30
2018-07-01T06:59:36.844Z,21.40
2018-07-01T07:02:06.502Z,21.50
2018-07-01T07:04:35.763Z,21.50
2018-07-01T07:07:05.277Z,21.60
2018-07-01T07:09:34.453Z,21.70
2018-07-01T07:12:03.820Z,21.70
2018-07-01T07:14:32.975Z,21.80
2018-07-01T07:17:02.073Z,21.80
2018-07-01T07:19:31.748Z,21.90
2018-07-01T07:24:29.713Z,22.00
2018-07-01T07:26:59.870Z,22.10
2018-07-01T07:29:29.394Z,22.20
2018-07-01T07:34:27.707Z,22.40
2018-07-01T07:36:56.749Z,22.50
2018-07-01T07:39:26.054Z,22.60
2018-07-01T07:41:55.174Z,22.70
2018-07-01T07:44:24.516Z,22.70
2018-07-01T07:46:53.976Z,22.80
2018-07-01T07:49:23.300Z,22.90
2018-07-01T07:51:53.613Z,23.00
2018-07-01T07:54:23.043Z,23.00
2018-07-01T07:56:52.312Z,23.10
2018-07-01T07:59:21.589Z,23.20
2018-07-01T08:01:50.931Z,23.20
2018-07-01T08:04:20.007Z,23.20
2018-07-01T08:06:49.085Z,23.40
2018-07-01T08:09:18.404Z,23.40
2018-07-01T08:11:47.551Z,23.50
2018-07-01T08:14:16.663Z,23.60
2018-07-01T08:16:45.764Z,23.60
2018-07-01T08:19:14.839Z,23.60
2018-07-01T08:21:44.182Z,23.70
2018-07-01T08:24:13.453Z,23.80
2018-07-01T08:26:42.923Z,23.90
2018-07-01T08:29:12.203Z,24.00
2018-07-01T08:31:41.439Z,24.10
2018-07-01T08:34:10.757Z,24.20
2018-07-01T08:36:39.807Z,24.20
2018-07-01T08:39:10.557Z,24.20
2018-07-01T08:41:53.712Z,24.20
2018-07-01T08:44:22.756Z,24.20
2018-07-01T08:46:52.369Z,24.20
2018-07-01T08:49:21.510Z,24.30
2018-07-01T08:51:50.821Z,24.40
2018-07-01T08:54:19.932Z,24.50
2018-07-01T08:56:49.199Z,24.60
2018-07-01T08:59:18.241Z,24.60
2018-07-01T09:01:47.328Z,24.70
2018-07-01T09:04:16.841Z,24.70
2018-07-01T09:06:46.114Z,24.70
2018-07-01T09:09:15.161Z,24.70
2018-07-01T09:11:44.333Z,24.80
2018-07-01T09:14:13.448Z,24.90
2018-07-01T09:16:42.607Z,25.00
2018-07-01T09:19:11.660Z,25.00
2018-07-01T09:21:40.675Z,25.10
2018-07-01T09:24:10.148Z,25.20
2018-07-01T09:26:39.269Z,25.30
2018-07-01T09:29:08.538Z,25.40
2018-07-01T09:31:37.565Z,25.40
2018-07-01T09:34:06.636Z,25.40
2018-07-01T09:36:35.873Z,25.50
2018-07-01T09:39:08.174Z,25.50
2018-07-01T09:41:37.259Z,25.60
2018-07-01T09:44:06.565Z,25.60
2018-07-01T09:46:36.369Z,25.60
2018-07-01T09:49:06.086Z,25.70
2018-07-01T09:51:35.464Z,25.80
2018-07-01T09:54:04.819Z,25.90
2018-07-01T09:56:34.186Z,25.90
2018-07-01T09:59:03.936Z,25.90
2018-07-01T10:01:33.051Z,26.10
2018-07-01T10:04:02.188Z,26.20
2018-07-01T10:06:31.359Z,26.20
2018-07-01T10:09:00.512Z,26.20
2018-07-01T10:11:29.816Z,26.20
2018-07-01T10:13:59.171Z,26.40
2018-07-01T10:16:28.240Z,26.50
2018-07-01T10:18:57.552Z,26.60
2018-07-01T10:21:26.577Z,26.60
2018-07-01T10:23:55.914Z,26.60
2018-07-01T10:26:25.118Z,26.60
2018-07-01T10:29:04.389Z,26.60
2018-07-01T10:31:34.257Z,26.70
2018-07-01T10:34:03.539Z,26.70
2018-07-01T10:36:32.872Z,26.80
2018-07-01T10:39:02.356Z,26.90
2018-07-01T10:41:32.327Z,26.90
2018-07-01T10:44:02.988Z,26.90
2018-07-01T10:46:32.321Z,27.00
2018-07-01T10:49:01.454Z,27.00
2018-07-01T10:51:30.804Z,27.10
2018-07-01T10:53:59.841Z,27.10
2018-07-01T10:56:29.722Z,27.10
2018-07-01T10:58:58.987Z,27.20
2018-07-01T11:01:28.065Z,27.20
2018-07-01T11:03:58.046Z,27.30
2018-07-01T11:06:27.073Z,27.30
2018-07-01T11:08:56.308Z,27.40
2018-07-01T11:11:25.364Z,27.40
2018-07-01T11:13:54.683Z,27.60
2018-07-01T11:16:23.828Z,27.60
2018-07-01T11:18:52.977Z,27.60
2018-07-01T11:21:22.368Z,27.60
2018-07-01T11:23:51.496Z,27.60
2018-07-01T11:26:20.653Z,27.70
2018-07-01T11:28:49.834Z,27.90
2018-07-01T11:31:19.272Z,28.00
2018-07-01T11:33:48.373Z,27.90
2018-07-01T11:36:17.746Z,27.80
2018-07-01T11:38:46.932Z,27.80
2018-07-01T11:41:16.114Z,27.80
2018-07-01T11:43:45.370Z,27.80
2018-07-01T11:46:14.551Z,27.90
2018-07-01T11:48:43.848Z,28.00
2018-07-01T11:51:12.898Z,28.10
2018-07-01T11:53:42.099Z,28.10
2018-07-01T11:56:11.338Z,28.20
2018-07-01T11:58:40.427Z,28.20
2018-07-01T12:01:09.476Z,28.30
2018-07-01T12:03:38.531Z,28.30
2018-07-01T12:06:07.711Z,28.40
2018-07-01T12:08:36.818Z,28.50
2018-07-01T12:11:05.888Z,28.50
2018-07-01T12:13:34.983Z,28.50
2018-07-01T12:16:04.227Z,28.60
2018-07-01T12:18:33.757Z,28.60
2018-07-01T12:21:03.016Z,28.60
2018-07-01T12:23:32.846Z,28.60
2018-07-01T12:26:01.979Z,28.80
2018-07-01T12:28:31.046Z,28.90
2018-07-01T12:31:00.087Z,29.00
2018-07-01T12:33:29.267Z,29.10
2018-07-01T12:35:58.339Z,29.10
2018-07-01T12:38:27.627Z,29.10
2018-07-01T12:40:56.773Z,29.10
2018-07-01T12:45:54.802Z,29.00
2018-07-01T12:48:24.195Z,29.10
2018-07-01T12:50:53.395Z,29.10
2018-07-01T12:53:22.579Z,29.00
2018-07-01T12:55:51.854Z,29.10
2018-07-01T12:58:20.881Z,29.10
2018-07-01T13:00:49.916Z,29.10
2018-07-01T13:03:19.008Z,29.20
2018-07-01T13:05:48.136Z,29.20
2018-07-01T13:08:17.374Z,29.20
2018-07-01T13:10:46.531Z,29.20
2018-07-01T13:13:15.847Z,29.20
2018-07-01T13:15:44.973Z,29.20
2018-07-01T13:18:14.477Z,29.20
2018-07-01T13:20:43.674Z,29.20
2018-07-01T13:23:13.031Z,29.30
2018-07-01T13:25:42.198Z,29.30
2018-07-01T13:28:11.437Z,29.30
2018-07-01T13:30:40.488Z,29.30
2018-07-01T13:33:09.536Z,29.30
2018-07-01T13:35:38.655Z,29.40
2018-07-01T13:38:07.891Z,29.40
2018-07-01T13:40:36.958Z,29.40
2018-07-01T13:43:06.485Z,29.50
2018-07-01T13:45:35.645Z,29.50
2018-07-01T13:48:04.832Z,29.60
2018-07-01T13:50:33.882Z,29.50
2018-07-01T13:53:02.942Z,29.50
2018-07-01T13:55:32.151Z,29.50
2018-07-01T13:58:01.448Z,29.60
2018-07-01T14:00:30.773Z,29.60
2018-07-01T14:02:59.973Z,29.70
2018-07-01T14:05:29.052Z,29.70
2018-07-01T14:07:58.450Z,29.60
2018-07-01T14:10:27.481Z,29.70
2018-07-01T14:12:56.616Z,29.70
2018-07-01T14:15:25.741Z,29.70
2018-07-01T14:17:54.733Z,29.60
2018-07-01T14:20:23.937Z,29.60
2018-07-01T14:22:53.201Z,29.60
2018-07-01T14:25:22.435Z,29.60
2018-07-01T14:27:51.583Z,29.60
2018-07-01T14:30:21.122Z,29.70
2018-07-01T14:32:50.253Z,29.70
2018-07-01T14:35:19.368Z,29.70
2018-07-01T14:37:48.619Z,29.70
2018-07-01T14:40:17.855Z,29.70
2018-07-01T14:42:47.144Z,29.80
2018-07-01T14:45:16.225Z,29.80
2018-07-01T14:47:45.257Z,30.00
2018-07-01T14:50:14.427Z,30.30
2018-07-01T14:55:13.156Z,31.60
2018-07-01T14:57:42.395Z,32.10
2018-07-01T15:00:11.553Z,32.40
2018-07-01T15:02:40.729Z,33.00
2018-07-01T15:05:09.857Z,33.90
2018-07-01T15:07:39.096Z,34.00
2018-07-01T15:10:08.312Z,34.40
2018-07-01T15:12:37.617Z,34.90
2018-07-01T15:17:35.783Z,35.40
2018-07-01T15:20:05.438Z,35.50
2018-07-01T15:22:35.264Z,35.60
2018-07-01T15:25:04.523Z,35.60
2018-07-01T15:27:33.612Z,35.60
2018-07-01T15:30:02.663Z,35.50
2018-07-01T15:32:31.805Z,35.60
2018-07-01T15:35:00.876Z,35.40
2018-07-01T15:37:29.921Z,35.20
2018-07-01T15:39:59.297Z,35.00
2018-07-01T15:42:28.554Z,35.10
2018-07-01T15:44:57.663Z,35.50
2018-07-01T15:47:26.916Z,35.60
2018-07-01T15:49:57.006Z,35.50
2018-07-01T15:52:26.085Z,35.70
2018-07-01T15:54:55.411Z,35.50
2018-07-01T15:57:24.531Z,35.50
2018-07-01T15:59:53.721Z,35.60
2018-07-01T16:04:51.597Z,36.00
2018-07-01T16:07:20.793Z,36.00
2018-07-01T16:09:50.269Z,36.00
2018-07-01T16:12:19.593Z,36.30
2018-07-01T16:14:48.709Z,36.90
2018-07-01T16:19:46.618Z,37.30
2018-07-01T16:22:15.780Z,37.40
2018-07-01T16:24:50.852Z,37.20
2018-07-01T16:27:25.435Z,36.60
2018-07-01T16:29:54.500Z,36.50
2018-07-01T16:32:26.455Z,36.20
2018-07-01T16:34:55.616Z,36.40
2018-07-01T16:37:24.739Z,36.40
2018-07-01T16:39:53.934Z,36.70
2018-07-01T16:42:23.707Z,36.90
2018-07-01T16:44:53.611Z,36.80
2018-07-01T16:47:22.774Z,36.70
2018-07-01T16:49:51.851Z,36.40
2018-07-01T16:52:21.080Z,36.30
2018-07-01T16:54:50.386Z,36.20
2018-07-01T16:57:20.057Z,36.20
2018-07-01T16:59:49.080Z,36.40
2018-07-01T17:02:18.152Z,36.60
2018-07-01T17:04:47.230Z,36.90
2018-07-01T17:07:16.404Z,37.00
2018-07-01T17:09:45.577Z,36.80
2018-07-01T17:12:14.858Z,36.90
2018-07-01T17:14:44.005Z,37.20
2018-07-01T17:17:13.356Z,37.50
2018-07-01T17:19:42.532Z,37.30
2018-07-01T17:22:12.172Z,37.30
2018-07-01T17:24:41.300Z,37.40
2018-07-01T17:27:11.530Z,37.20
2018-07-01T17:29:40.889Z,37.10
2018-07-01T17:33:14.991Z,37.40
2018-07-01T17:35:44.353Z,37.30
2018-07-01T17:38:14.098Z,37.60
2018-07-01T17:40:43.181Z,37.70
2018-07-01T17:43:12.317Z,37.60
2018-07-01T17:45:41.497Z,37.60
2018-07-01T17:48:10.581Z,37.30
2018-07-01T17:50:39.639Z,37.10
2018-07-01T17:53:10.020Z,37.20
2018-07-01T17:55:39.064Z,37.00
2018-07-01T17:58:08.258Z,36.60
2018-07-01T18:00:37.363Z,36.70
2018-07-01T18:03:06.648Z,36.80
2018-07-01T18:05:35.771Z,36.80
2018-07-01T18:08:05.114Z,36.40
2018-07-01T18:10:34.236Z,35.60
2018-07-01T18:13:03.423Z,34.40
2018-07-01T18:15:32.475Z,33.40
2018-07-01T18:18:02.286Z,32.20
2018-07-01T18:20:31.487Z,31.30
2018-07-01T18:23:27.419Z,30.40
2018-07-01T18:25:30.127Z,29.90
2018-07-01T18:28:11.464Z,29.40
2018-07-01T18:30:28.574Z,28.90
2018-07-01T18:35:26.540Z,28.40
2018-07-01T18:40:25.030Z,27.90
2018-07-01T18:42:54.179Z,27.80
2018-07-01T18:45:23.455Z,27.60
2018-07-01T18:47:52.731Z,27.50
2018-07-01T18:50:21.894Z,27.30
2018-07-01T18:52:51.137Z,27.20
2018-07-01T18:55:20.263Z,27.10
2018-07-01T18:57:49.696Z,27.00
2018-07-01T19:00:18.921Z,26.90
2018-07-01T19:02:48.014Z,26.70
2018-07-01T19:05:17.302Z,26.70
2018-07-01T19:07:46.429Z,26.50
2018-07-01T19:10:15.614Z,26.40
2018-07-01T19:12:45.345Z,26.30
2018-07-01T19:15:14.844Z,26.20
2018-07-01T19:17:44.088Z,26.10
2018-07-01T19:20:13.202Z,26.00
2018-07-01T19:22:42.489Z,25.90
2018-07-01T19:25:12.111Z,25.80
2018-07-01T19:27:41.176Z,25.70
2018-07-01T19:30:10.327Z,25.60
2018-07-01T19:32:39.496Z,25.50
2018-07-01T19:35:08.792Z,25.40
2018-07-01T19:37:38.006Z,25.30
2018-07-01T19:40:07.268Z,25.20
2018-07-01T19:42:36.331Z,25.10
2018-07-01T19:45:06.027Z,25.00
2018-07-01T19:47:35.078Z,24.80
2018-07-01T19:50:04.279Z,24.70
2018-07-01T19:52:33.373Z,24.60
2018-07-01T19:55:02.784Z,24.50
2018-07-01T19:57:31.926Z,24.40
2018-07-01T20:00:01.890Z,24.30
2018-07-01T20:02:30.951Z,24.10
2018-07-01T20:05:00.083Z,23.90
2018-07-01T20:07:29.123Z,23.70
2018-07-01T20:12:26.898Z,23.50
2018-07-01T20:14:55.930Z,23.40
2018-07-01T20:17:24.968Z,23.30
2018-07-01T20:19:54.199Z,23.20
2018-07-01T20:22:23.528Z,23.00
2018-07-01T20:24:52.700Z,22.90
2018-07-01T20:27:21.856Z,22.80
2018-07-01T20:29:50.990Z,22.70
2018-07-01T20:32:20.149Z,22.70
2018-07-01T20:34:49.406Z,22.60
2018-07-01T20:37:18.651Z,22.50
2018-07-01T20:39:47.876Z,22.40
2018-07-01T20:42:16.966Z,22.30
2018-07-01T20:44:46.133Z,22.20
2018-07-01T20:47:15.323Z,22.10
2018-07-01T20:49:44.953Z,22.10
2018-07-01T20:52:13.965Z,22.00
2018-07-01T20:57:12.016Z,21.90
2018-07-01T20:59:41.151Z,21.80
2018-07-01T21:02:10.398Z,21.70
2018-07-01T21:04:39.875Z,21.70
2018-07-01T21:07:09.162Z,21.60
2018-07-01T21:09:38.452Z,21.40
2018-07-01T21:12:07.632Z,21.40
2018-07-01T21:14:37.329Z,21.30
2018-07-01T21:17:06.728Z,21.30
2018-07-01T21:19:35.931Z,21.20
2018-07-01T21:22:05.087Z,21.20
2018-07-01T21:24:34.150Z,21.10
2018-07-01T21:27:03.429Z,21.00
2018-07-01T21:29:32.653Z,20.90
2018-07-01T21:32:01.709Z,20.80
2018-07-01T21:34:30.903Z,20.80
2018-07-01T21:37:00.176Z,20.70
2018-07-01T21:39:29.361Z,20.60
2018-07-01T21:41:58.478Z,20.50
2018-07-01T21:44:27.757Z,20.40
2018-07-01T21:46:56.808Z,20.30
2018-07-01T21:49:26.018Z,20.30
2018-07-01T21:51:55.353Z,20.20
2018-07-01T21:54:24.481Z,20.20
2018-07-01T21:56:53.716Z,20.10
2018-07-01T21:59:22.736Z,20.10
2018-07-01T22:01:51.849Z,20.00
2018-07-01T22:04:21.027Z,20.00
2018-07-01T22:06:55.543Z,19.90
2018-07-01T22:09:24.713Z,19.90
2018-07-01T22:12:03.843Z,19.80
2018-07-01T22:14:40.389Z,19.70
2018-07-01T22:17:10.944Z,19.70
2018-07-01T22:19:40.342Z,19.60
2018-07-01T22:22:10.278Z,19.50
2018-07-01T22:24:39.972Z,19.50
2018-07-01T22:27:09.377Z,19.50
2018-07-01T22:29:38.666Z,19.40
2018-07-01T22:32:07.726Z,19.30
2018-07-01T22:34:36.998Z,19.30
2018-07-01T22:37:06.218Z,19.30
2018-07-01T22:39:35.446Z,19.20
2018-07-01T22:42:04.778Z,19.20
2018-07-01T22:44:33.825Z,19.10
2018-07-01T22:47:03.444Z,19.10
2018-07-01T22:49:32.580Z,19.00
2018-07-01T22:54:30.487Z,18.90
2018-07-01T22:57:00.478Z,18.80
2018-07-01T22:59:29.576Z,18.80
2018-07-01T23:03:12.948Z,18.70
2018-07-01T23:05:42.386Z,18.70
2018-07-01T23:08:11.584Z,18.60
2018-07-01T23:10:40.680Z,18.60
2018-07-01T23:13:10.016Z,18.60
2018-07-01T23:15:39.192Z,18.50
2018-07-01T23:18:08.984Z,18.50
2018-07-01T23:20:38.060Z,18.40
2018-07-01T23:23:07.197Z,18.30
2018-07-01T23:25:36.393Z,18.30
2018-07-01T23:28:05.480Z,18.30
2018-07-01T23:30:34.946Z,18.20
2018-07-01T23:33:04.284Z,18.10
2018-07-01T23:35:33.419Z,18.00
2018-07-01T23:38:02.499Z,18.00
2018-07-01T23:43:00.412Z,17.90
2018-07-01T23:45:29.431Z,17.80
2018-07-01T23:47:58.569Z,17.70
2018-07-01T23:55:26.580Z,17.50
2018-07-01T23:57:55.867Z,17.40
